ヘルシンキ/ヴァンター の空港の天気 - METARとTAF

ヘルシンキ・ヴァンター国際空港 ( EFHK / HEL ) - フィンランド ヴァンター
飛行場実況気象(Metar)
観測時間11/22 14:50 EET (11/22 12:50 UTC)
風向・風速東北東 5m/s
視程7000m
天気現象弱いしゅう雪
全天の8割程度の雲 雲底高度 120m
全天の8割程度の雲 雲底高度 150m
気温1℃
湿度93%
気圧1014hPa
METAREFHK 221250Z 06009KT 7000 -SHSN BKN004 BKN005 01/M00 Q1014 BECMG 2000 SN
過去の天気等 Google飛行場航空写真 Wunderground天気予報

過去48時間のMETAR

飛行場予報(TAF)
発表時間: 11/22 13:34 EET (11/22 11:34 UTC)
予報対象時間: 22日14時 EET ~ 23日14時 EET
風向・風速東北東 4m/s
視程10km以上
全天の8割程度の雲 雲底高度 150m
22日14時 EET ~ 22日16時 EET に一時的に
視程2,500m
天気現象弱いしゅう雪
全天の8割程度の雲 雲底高度 120m
全天の4割程度の積乱雲 雲底高度 610m
22日16時 EET ~ 22日18時 EET に徐々に
全天の8割程度の雲 雲底高度 610m
22日16時 EET ~ 22日23時 EET に一時的に
視程2,500m
天気現象弱いしゅう雪
全天の8割程度の雲 雲底高度 150m
全天の4割程度の積乱雲 雲底高度 610m
22日23時 EET ~ 23日1時 EET に徐々に
風向・風速東南東 7m/s
23日7時 EET ~ 23日9時 EET に徐々に
風向・風速東南東 10m/s 瞬間風速 16m/s
視程2,500m
天気現象弱い雪
全天の8割程度の雲 雲底高度 300m
23日11時 EET ~ 23日14時 EET に一時的に
視程1,400m
天気現象雪雨
全天を覆う雲 鉛直視程 240m
TAF EFHK 221134Z 2212/2312 06008KT 9999 BKN005
TEMPO 2212/2214 2500 -SHSN BKN004 SCT020CB
BECMG 2214/2216 BKN020
TEMPO 2214/2221 2500 -SHSN BKN005 SCT020CB
BECMG 2221/2223 12013KT
BECMG 2305/2307 12020G31KT 2500 -SN BKN010
TEMPO 2309/2312 1400 SNRA VV008